CYVM

Qikiqtarjuaq Airport

Qikiqtarjuaq, Canada
METAR CYVM 250000Z AUTO 00000KT 9SM CLR M19/M23 A2986 RMK SLP113
Observed Flight Rules
Apr-25 @ 00:00 UTC (25 minutes ago) Visual Flight Rules
Visibility Clouds
9 miles
  • Clear skies
Temperatures Readings
Current -19°C / -2°F
Dewpoint -23°C / -9°F
Humidity 71%
Altimeter 29.86" Hg
Pressure 1011.3 hPa
Elevation 6
METAR CYVM 250000Z AUTO 00000KT 9SM CLR M19/M23 A2986 RMK SLP113
Observed Flight Rules
Apr-25 @ 00:00 UTC
(25 minutes ago)
VFR
Clouds
  • Clear skies
Temperature Dewpoint
-19°C / -2°F -23°C / -9°F
Humidity Altimeter Pressure
71% 29.86" Hg 1011.3 hPa